地図

経路データ

SID SEASON NUMBER BASIN SUBBASIN NAME ISO_TIME NATURE LAT LON WMO_WIND WMO_PRES WMO_AGENCY TRACK_TYPE DIST2LAND LANDFALL IFLAG USA_AGENCY USA_ATCF_ID USA_LAT USA_LON USA_RECORD USA_STATUS USA_WIND USA_PRES USA_SSHS USA_R34_NE USA_R34_SE USA_R34_SW USA_R34_NW USA_R50_NE USA_R50_SE USA_R50_SW USA_R50_NW USA_R64_NE USA_R64_SE USA_R64_SW USA_R64_NW USA_POCI USA_ROCI USA_RMW USA_EYE TOKYO_LAT TOKYO_LON TOKYO_GRADE TOKYO_WIND TOKYO_PRES TOKYO_R50_DIR TOKYO_R50_LONG TOKYO_R50_SHORT TOKYO_R30_DIR TOKYO_R30_LONG TOKYO_R30_SHORT TOKYO_LAND CMA_LAT CMA_LON CMA_CAT CMA_WIND CMA_PRES HKO_LAT HKO_LON HKO_CAT HKO_WIND HKO_PRES NEWDELHI_LAT NEWDELHI_LON NEWDELHI_GRADE NEWDELHI_WIND NEWDELHI_PRES NEWDELHI_CI NEWDELHI_DP NEWDELHI_POCI REUNION_LAT REUNION_LON REUNION_TYPE REUNION_WIND REUNION_PRES REUNION_TNUM REUNION_CI REUNION_RMW REUNION_R34_NE REUNION_R34_SE REUNION_R34_SW REUNION_R34_NW REUNION_R50_NE REUNION_R50_SE REUNION_R50_SW REUNION_R50_NW REUNION_R64_NE REUNION_R64_SE REUNION_R64_SW REUNION_R64_NW BOM_LAT BOM_LON BOM_TYPE BOM_WIND BOM_PRES BOM_TNUM BOM_CI BOM_RMW BOM_R34_NE BOM_R34_SE BOM_R34_SW BOM_R34_NW BOM_R50_NE BOM_R50_SE BOM_R50_SW BOM_R50_NW BOM_R64_NE BOM_R64_SE BOM_R64_SW BOM_R64_NW BOM_ROCI BOM_POCI BOM_EYE BOM_POS_METHOD BOM_PRES_METHOD NADI_LAT NADI_LON NADI_CAT NADI_WIND NADI_PRES WELLINGTON_LAT WELLINGTON_LON WELLINGTON_WIND WELLINGTON_PRES DS824_LAT DS824_LON DS824_STAGE DS824_WIND DS824_PRES TD9636_LAT TD9636_LON TD9636_STAGE TD9636_WIND TD9636_PRES TD9635_LAT TD9635_LON TD9635_WIND TD9635_PRES TD9635_ROCI NEUMANN_LAT NEUMANN_LON NEUMANN_CLASS NEUMANN_WIND NEUMANN_PRES MLC_LAT MLC_LON MLC_CLASS MLC_WIND MLC_PRES USA_GUST BOM_GUST BOM_GUST_PER REUNION_GUST REUNION_GUST_PER USA_SEAHGT USA_SEARAD_NE USA_SEARAD_SE USA_SEARAD_SW USA_SEARAD_NW STORM_SPEED STORM_DIR
1902042S15065 1902 11 SI MM NOT_NAMED 1902-02-11 06:00:00 TS -15.3500 65.0500 reunion main 950 917 _____O___O____ -1 -14.7000 66.4000 99 9.90000 -16.0000 63.7000 TC 6 251
1902042S15065 1902 11 SI MM NOT_NAMED 1902-02-11 09:00:00 TS -15.4423 64.7717 main 917 884 _____P___P____ -1 -14.7820 66.1582 99 -16.1026 63.3851 TC 6 251
1902042S15065 1902 11 SI MM NOT_NAMED 1902-02-11 12:00:00 TS -15.5352 64.5025 main 884 860 _____P___O____ -1 -14.8705 65.9051 99 -16.2000 63.1000 TC 5 250
1902042S15065 1902 11 SI MM NOT_NAMED 1902-02-11 15:00:00 TS -15.6321 64.2432 main 852 828 _____P___P____ -1 -14.9718 65.6290 99 -16.2924 62.8574 TC 6 248
1902042S15065 1902 11 SI MM NOT_NAMED 1902-02-11 18:00:00 TS -15.7464 63.9593 main 828 781 _____P___O____ -1 -15.0928 65.3187 99 -16.4000 62.6000 TC 7 247
1902042S15065 1902 11 SI MM NOT_NAMED 1902-02-11 21:00:00 TS -15.8874 63.6099 main 781 740 _____P___P____ -1 -15.2397 64.9624 99 -16.5350 62.2575 TC 8 246
1902042S15065 1902 11 SI MM NOT_NAMED 1902-02-12 00:00:00 TS -16.0595 63.2243 main 733 694 _____P___O____ -1 -15.4191 64.5485 99 -16.7000 61.9000 TC 8 243
1902042S15065 1902 11 SI MM NOT_NAMED 1902-02-12 03:00:00 TS -16.2648 62.8288 main 686 639 _____P___P____ -1 -15.6371 64.0651 99 -16.8924 61.5925 TC 9 241
1902042S15065 1902 11 SI MM NOT_NAMED 1902-02-12 06:00:00 TS -16.5000 62.4000 reunion main 639 592 _____O___O____ -1 -15.9000 63.5000 99 9.90000 -17.1000 61.3000 TC 10 241
1902042S15065 1902 11 SI MM NOT_NAMED 1902-02-12 09:00:00 TS -16.7520 61.9252 main 576 529 _____P___P____ -1 -16.2115 62.8504 99 -17.2925 60.9999 TC 11 240
1902042S15065 1902 11 SI MM NOT_NAMED 1902-02-12 12:00:00 TS -17.0335 61.4259 main 521 460 _____P___O____ -1 -16.5669 62.1518 99 -17.5000 60.7000 TC 11 238
1902042S15065 1902 11 SI MM NOT_NAMED 1902-02-12 15:00:00 TS -17.3474 60.9172 main 460 398 _____P___P____ -1 -16.9598 61.4495 99 -17.7350 60.3850 TC 11 235
1902042S15065 1902 11 SI MM NOT_NAMED 1902-02-12 18:00:00 TS -17.6921 60.4446 main 390 344 _____P___O____ -1 -17.3843 60.7892 99 -18.0000 60.1000 TC 11 230
1902042S15065 1902 11 SI MM NOT_NAMED 1902-02-12 21:00:00 TS -18.0563 60.0398 main 329 291 _____P___P____ -1 -17.8351 60.2171 99 -18.2775 59.8625 TC 10 221
1902042S15065 1902 11 SI MM NOT_NAMED 1902-02-13 00:00:00 TS -18.4538 59.7399 main 275 238 _____P___O____ -1 -18.3076 59.7799 99 -18.6000 59.7000 TC 9 211
1902042S15065 1902 11 SI MM NOT_NAMED 1902-02-13 03:00:00 TS -18.8685 59.5316 main 231 208 _____P___P____ -1 -18.7973 59.5249 99 -18.9397 59.5384 TC 9 191
1902042S15065 1902 11 SI MM NOT_NAMED 1902-02-13 06:00:00 TS -19.3500 59.5500 reunion main 218 208 _____O___O____ -1 -19.3000 59.5000 99 9.90000 -19.4000 59.6000 TC 12 160
1902042S15065 1902 11 SI MM NOT_NAMED 1902-02-13 09:00:00 TS -19.9658 59.9625 main 232 232 _____P___P____ -1 -19.8470 59.9254 99 -20.0846 59.9996 TC 16 141
1902042S15065 1902 11 SI MM NOT_NAMED 1902-02-13 12:00:00 TS -20.6090 60.6476 main 293 293 _____P___O____ -1 -20.4181 60.5952 99 -20.8000 60.7000 TC 19 129
1902042S15065 1902 11 SI MM NOT_NAMED 1902-02-13 15:00:00 TS -21.1667 61.5219 main 397 397 _____P___P____ -1 -20.9956 61.4534 99 -21.3378 61.5903 TC 21 122
1902042S15065 1902 11 SI MM NOT_NAMED 1902-02-13 18:00:00 TS -21.6810 62.5212 main 512 512 _____P___O____ -1 -21.5620 62.4425 99 -21.8000 62.6000 TC 21 119
1902042S15065 1902 11 SI MM NOT_NAMED 1902-02-13 21:00:00 TS -22.1860 63.5193 main 627 627 _____P___P____ -1 -22.1003 63.5031 99 -22.2717 63.5356 TC 21 117
1902042S15065 1902 11 SI MM NOT_NAMED 1902-02-14 00:00:00 TS -22.6400 64.5425 main 739 739 _____P___O____ -1 -22.5951 64.5744 99 -22.7000 64.5000 TC 21 114
1902042S15065 1902 11 SI MM NOT_NAMED 1902-02-14 03:00:00 TS -23.0446 65.5725 main 860 860 _____P___P____ -1 -23.0323 65.5943 99 -23.0691 65.5290 TC 20 113
1902042S15065 1902 11 SI MM NOT_NAMED 1902-02-14 06:00:00 TS -23.4000 66.5200 reunion main 961 961 _____O___O____ -1 -23.4000 66.5000 99 9.90000 -23.4000 66.6000 TC 17 113
1902042S15065 1902 11 SI MM NOT_NAMED 1902-02-14 09:00:00 NR -23.6912 67.2425 main 1040 1040 _____P________ -1 -23.6912 67.2425 99 TC 13 113
1902042S15065 1902 11 SI MM NOT_NAMED 1902-02-14 12:00:00 NR -23.9141 67.8288 main 1105 1105 _____P________ -1 -23.9141 67.8288 99 10 112
1902042S15065 1902 11 SI MM NOT_NAMED 1902-02-14 15:00:00 NR -24.0798 68.2807 main 1160 1160 _____P________ -1 -24.0798 68.2807 99 8 112
1902042S15065 1902 11 SI MM NOT_NAMED 1902-02-14 18:00:00 NR -24.1988 68.6200 main 1193 1193 _____P________ -1 -24.1988 68.6200 99 6 111
1902042S15065 1902 11 SI MM NOT_NAMED 1902-02-14 21:00:00 NR -24.2810 68.8691 main 1225 1225 _____P________ -1 -24.2810 68.8691 99 4 109
1902042S15065 1902 11 SI MM NOT_NAMED 1902-02-15 00:00:00 NR -24.3358 69.0504 main 1244 1244 _____P________ -1 -24.3358 69.0504 99 3 108
1902042S15065 1902 11 SI MM NOT_NAMED 1902-02-15 03:00:00 NR -24.3724 69.1865 main 1257 1257 _____P________ -1 -24.3724 69.1865 99 2 106
1902042S15065 1902 11 SI MM NOT_NAMED 1902-02-15 06:00:00 NR -24.4000 69.3000 reunion main 1267 _____O________ -1 -24.4000 69.3000 99 9.90000 2 105

IBTrACS Databaseについて

本データベースは、米国NOAAが公開する1842年以降の世界の熱帯低気圧のベストトラックデータアーカイブInternational Best Track Archive for Climate Stewardship (IBTrACS)を、ウェブで閲覧しやすい形式に変換したものです。

最終更新日:2021-10-21